createdAt,value
2019-01-21T00:00:20.726Z,27.43
2019-01-21T00:02:49.457Z,26.03
2019-01-21T00:05:18.504Z,27.13
2019-01-21T00:07:47.827Z,25.47
2019-01-21T00:10:16.593Z,26.10
2019-01-21T00:12:45.381Z,24.90
2019-01-21T00:15:14.373Z,25.43
2019-01-21T00:17:43.161Z,23.97
2019-01-21T00:20:12.051Z,23.70
2019-01-21T00:22:40.943Z,23.63
2019-01-21T00:25:09.834Z,21.30
2019-01-21T00:27:38.576Z,25.07
2019-01-21T00:30:12.533Z,23.40
2019-01-21T00:32:41.322Z,22.07
2019-01-21T00:35:10.521Z,21.67
2019-01-21T00:37:39.613Z,22.93
2019-01-21T00:40:14.279Z,21.93
2019-01-21T00:42:43.028Z,22.27
2019-01-21T00:45:12.201Z,24.43
2019-01-21T00:47:41.008Z,20.83
2019-01-21T00:50:11.853Z,20.90
2019-01-21T00:52:41.047Z,21.77
2019-01-21T00:55:11.780Z,19.67
2019-01-21T00:57:40.573Z,20.03
2019-01-21T01:00:18.569Z,20.77
2019-01-21T01:02:47.320Z,21.47
2019-01-21T01:05:17.845Z,21.30
2019-01-21T01:07:47.200Z,22.80
2019-01-21T01:10:16.143Z,22.00
2019-01-21T01:12:44.972Z,20.17
2019-01-21T01:15:15.274Z,21.23
2019-01-21T01:17:44.289Z,19.33
2019-01-21T01:20:15.630Z,20.80
2019-01-21T01:22:44.527Z,20.10
2019-01-21T01:25:13.564Z,19.40
2019-01-21T01:27:42.511Z,18.97
2019-01-21T01:30:14.166Z,19.57
2019-01-21T01:32:43.004Z,19.27
2019-01-21T01:35:13.792Z,18.97
2019-01-21T01:37:43.193Z,19.10
2019-01-21T01:40:14.598Z,19.80
2019-01-21T01:42:43.537Z,19.37
2019-01-21T01:45:15.698Z,19.23
2019-01-21T01:47:45.112Z,19.03
2019-01-21T01:50:14.210Z,19.30
2019-01-21T01:52:43.190Z,19.90
2019-01-21T01:55:12.079Z,20.00
2019-01-21T01:57:40.827Z,20.17
2019-01-21T02:00:12.872Z,20.73
2019-01-21T02:02:41.610Z,22.70
2019-01-21T02:05:10.509Z,21.70
2019-01-21T02:07:39.603Z,19.27
2019-01-21T02:10:11.568Z,18.93
2019-01-21T02:12:40.565Z,21.80
2019-01-21T02:15:12.533Z,20.83
2019-01-21T02:17:41.618Z,18.83
2019-01-21T02:20:13.400Z,20.23
2019-01-21T02:22:44.305Z,19.67
2019-01-21T02:25:13.928Z,19.87
2019-01-21T02:28:11.387Z,18.10
2019-01-21T02:30:51.866Z,20.47
2019-01-21T02:33:57.618Z,19.40
2019-01-21T02:36:44.409Z,19.10
2019-01-21T02:39:24.752Z,18.07
2019-01-21T02:41:56.445Z,19.10
2019-01-21T02:45:01.668Z,18.80
2019-01-21T02:47:35.957Z,17.20
2019-01-21T02:50:25.255Z,20.23
2019-01-21T02:53:17.968Z,17.13
2019-01-21T02:55:56.043Z,18.37
2019-01-21T02:58:47.531Z,17.87
2019-01-21T03:01:34.253Z,17.37
2019-01-21T03:04:24.013Z,20.63
2019-01-21T03:07:01.645Z,16.83
2019-01-21T03:09:33.371Z,19.00
2019-01-21T03:12:05.077Z,18.13
2019-01-21T03:14:54.958Z,17.80
2019-01-21T03:17:26.872Z,18.40
2019-01-21T03:20:01.293Z,18.47
2019-01-21T03:22:35.698Z,17.03
2019-01-21T03:25:07.365Z,15.67
2019-01-21T03:27:55.295Z,15.53
2019-01-21T03:30:42.317Z,16.07
2019-01-21T03:33:41.935Z,17.13
2019-01-21T03:36:30.369Z,15.00
2019-01-21T03:39:08.074Z,14.00
2019-01-21T03:42:06.875Z,15.90
2019-01-21T03:44:41.318Z,15.20
2019-01-21T03:47:24.330Z,14.40
2019-01-21T03:49:56.069Z,12.80
2019-01-21T03:52:37.036Z,12.83
2019-01-21T03:55:09.052Z,12.63
2019-01-21T03:57:52.957Z,12.97
2019-01-21T04:00:27.620Z,12.80
2019-01-21T04:03:14.580Z,14.07
2019-01-21T04:05:55.664Z,14.03
2019-01-21T04:08:47.029Z,15.63
2019-01-21T04:11:44.538Z,15.33
2019-01-21T04:14:18.963Z,16.47
2019-01-21T04:16:56.553Z,15.83
2019-01-21T04:19:33.849Z,17.97
2019-01-21T04:22:11.640Z,16.30
2019-01-21T04:24:58.748Z,17.20
2019-01-21T04:27:33.385Z,15.43
2019-01-21T04:30:07.842Z,16.87
2019-01-21T04:32:58.303Z,16.93
2019-01-21T04:35:32.926Z,15.30
2019-01-21T04:38:16.559Z,18.20
2019-01-21T04:40:50.750Z,19.23
2019-01-21T04:43:22.641Z,16.93
2019-01-21T04:46:15.284Z,16.67
2019-01-21T04:48:50.110Z,21.47
2019-01-21T04:51:30.606Z,27.43
2019-01-21T04:54:17.813Z,70.27
2019-01-21T04:57:01.224Z,23.53
2019-01-21T04:59:42.300Z,22.03
2019-01-21T05:02:20.004Z,18.77
2019-01-21T05:04:51.756Z,17.07
2019-01-21T05:07:38.981Z,31.10
2019-01-21T05:10:19.782Z,18.20
2019-01-21T05:12:51.507Z,27.23
2019-01-21T05:15:31.965Z,20.37
2019-01-21T05:18:31.170Z,18.70
2019-01-21T05:21:25.759Z,26.17
2019-01-21T05:24:14.206Z,24.00
2019-01-21T05:26:48.869Z,22.73
2019-01-21T05:29:23.227Z,22.30
2019-01-21T05:32:14.659Z,24.33
2019-01-21T05:34:46.433Z,31.23
2019-01-21T05:37:18.188Z,25.83
2019-01-21T05:40:01.567Z,21.73
2019-01-21T05:42:54.535Z,20.23
2019-01-21T05:45:32.271Z,21.17
2019-01-21T05:48:23.496Z,21.53
2019-01-21T05:51:13.165Z,30.30
2019-01-21T05:53:53.905Z,20.30
2019-01-21T05:56:34.598Z,32.23
2019-01-21T05:59:21.301Z,25.23
2019-01-21T06:02:01.560Z,24.73
2019-01-21T06:04:36.389Z,29.27
2019-01-21T06:07:16.776Z,39.23
2019-01-21T06:10:09.644Z,30.27
2019-01-21T06:12:44.530Z,31.07
2019-01-21T06:15:41.580Z,52.07
2019-01-21T06:18:25.433Z,41.43
2019-01-21T06:21:18.311Z,46.27
2019-01-21T06:23:59.146Z,34.20
2019-01-21T06:26:45.756Z,42.43
2019-01-21T06:29:23.654Z,21.73
2019-01-21T06:32:04.526Z,27.73
2019-01-21T06:34:48.058Z,34.03
2019-01-21T06:37:37.939Z,27.50
2019-01-21T06:40:38.882Z,30.10
2019-01-21T06:43:25.491Z,28.23
2019-01-21T06:46:18.373Z,29.43
2019-01-21T06:48:53.070Z,24.33
2019-01-21T06:51:30.160Z,33.17
2019-01-21T06:54:13.791Z,31.17
2019-01-21T06:57:08.070Z,45.27
2019-01-21T07:00:02.371Z,37.67
2019-01-21T07:02:53.473Z,32.27
2019-01-21T07:05:37.273Z,35.70
2019-01-21T07:08:30.351Z,29.97
2019-01-21T07:11:16.977Z,31.80
2019-01-21T07:13:51.812Z,24.90
2019-01-21T07:16:23.456Z,29.27
2019-01-21T07:19:17.858Z,33.90
2019-01-21T07:22:18.483Z,32.97
2019-01-21T07:25:06.492Z,22.33
2019-01-21T07:27:54.663Z,27.70
2019-01-21T07:30:59.906Z,24.43
2019-01-21T07:33:58.664Z,29.13
2019-01-21T07:36:39.258Z,38.23
2019-01-21T07:39:33.902Z,33.00
2019-01-21T07:42:39.011Z,26.00
2019-01-21T07:45:13.412Z,21.33
2019-01-21T07:48:03.398Z,24.50
2019-01-21T07:50:38.025Z,35.03
2019-01-21T07:53:12.562Z,35.80
2019-01-21T07:56:02.427Z,32.63
2019-01-21T07:58:52.001Z,31.20
2019-01-21T08:01:29.701Z,29.77
2019-01-21T08:04:27.162Z,31.53
2019-01-21T08:07:13.968Z,28.70
2019-01-21T08:09:57.757Z,26.50
2019-01-21T08:12:45.952Z,32.47
2019-01-21T08:15:20.601Z,26.63
2019-01-21T08:18:04.520Z,29.93
2019-01-21T08:20:48.465Z,30.67
2019-01-21T08:23:42.952Z,28.67
2019-01-21T08:26:20.467Z,34.43
2019-01-21T08:29:00.945Z,28.77
2019-01-21T08:31:32.685Z,28.97
2019-01-21T08:34:10.365Z,29.03
2019-01-21T08:36:45.198Z,30.73
2019-01-21T08:39:33.481Z,27.30
2019-01-21T08:42:08.371Z,25.60
2019-01-21T08:44:48.424Z,33.90
2019-01-21T08:47:23.629Z,27.60
2019-01-21T08:50:01.327Z,28.00
2019-01-21T08:52:42.126Z,24.10
2019-01-21T08:55:33.645Z,23.23
2019-01-21T08:58:29.980Z,24.37
2019-01-21T09:01:07.573Z,24.77
2019-01-21T09:03:51.943Z,29.40
2019-01-21T09:06:26.657Z,27.17
2019-01-21T09:09:04.965Z,24.27
2019-01-21T09:11:42.661Z,25.33
2019-01-21T09:14:36.946Z,23.70
2019-01-21T09:17:11.368Z,20.97
2019-01-21T09:19:52.198Z,23.53
2019-01-21T09:22:49.784Z,22.73
2019-01-21T09:25:36.716Z,19.87
2019-01-21T09:28:29.473Z,21.03
2019-01-21T09:31:10.167Z,18.47
2019-01-21T09:33:50.608Z,20.53
2019-01-21T09:36:25.526Z,19.33
2019-01-21T09:39:03.945Z,20.77
2019-01-21T09:41:50.852Z,20.77
2019-01-21T09:44:22.615Z,21.57
2019-01-21T09:46:50.171Z,21.70
2019-01-21T09:49:17.859Z,21.47
2019-01-21T09:51:49.287Z,20.73
2019-01-21T09:54:20.633Z,23.17
2019-01-21T09:56:49.934Z,25.07
2019-01-21T09:59:20.871Z,23.03
2019-01-21T10:01:51.407Z,22.87
2019-01-21T10:04:23.112Z,36.00
2019-01-21T10:06:54.808Z,67.20
2019-01-21T10:09:29.341Z,26.50
2019-01-21T10:12:17.883Z,65.53
2019-01-21T10:14:58.960Z,48.30
2019-01-21T10:17:36.522Z,45.37
2019-01-21T10:20:21.010Z,37.23
2019-01-21T10:22:58.604Z,37.00
2019-01-21T10:25:42.343Z,31.93
2019-01-21T10:28:39.039Z,32.13
2019-01-21T10:31:14.018Z,30.00
2019-01-21T10:33:48.746Z,31.17
2019-01-21T10:36:52.657Z,30.07
2019-01-21T10:39:24.313Z,26.13
2019-01-21T10:42:14.278Z,26.63
2019-01-21T10:44:48.799Z,28.97
2019-01-21T10:47:23.346Z,28.97
2019-01-21T10:50:07.082Z,33.73
2019-01-21T10:52:53.891Z,25.50
2019-01-21T10:55:44.593Z,27.43
2019-01-21T10:58:22.199Z,29.23
2019-01-21T11:01:30.607Z,26.23
2019-01-21T11:04:11.887Z,19.07
2019-01-21T11:07:00.374Z,20.67
2019-01-21T11:09:47.560Z,15.47
2019-01-21T11:12:34.176Z,19.43
2019-01-21T11:15:23.433Z,17.37
2019-01-21T11:17:55.084Z,14.43
2019-01-21T11:20:38.928Z,13.77
2019-01-21T11:23:25.884Z,13.07
2019-01-21T11:26:06.201Z,11.33
2019-01-21T11:28:40.569Z,11.67
2019-01-21T11:31:18.428Z,16.90
2019-01-21T11:34:05.128Z,14.50
2019-01-21T11:36:39.753Z,16.23
2019-01-21T11:39:23.085Z,15.67
2019-01-21T11:41:54.842Z,16.30
2019-01-21T11:44:35.404Z,17.50
2019-01-21T11:47:13.101Z,15.60
2019-01-21T11:49:53.632Z,30.53
2019-01-21T11:52:28.597Z,16.90
2019-01-21T11:55:03.023Z,17.73
2019-01-21T11:57:46.860Z,13.43
2019-01-21T12:00:24.560Z,21.00
2019-01-21T12:03:02.362Z,13.83
2019-01-21T12:05:34.522Z,14.60
2019-01-21T12:08:22.665Z,32.93
2019-01-21T12:11:00.362Z,29.20
2019-01-21T12:13:48.708Z,19.30
2019-01-21T12:16:35.517Z,20.70
2019-01-21T12:19:25.091Z,15.73
2019-01-21T12:22:16.513Z,14.40
2019-01-21T12:24:46.227Z,18.30
2019-01-21T12:27:34.470Z,23.07
2019-01-21T12:30:06.430Z,11.47
2019-01-21T12:32:56.315Z,19.37
2019-01-21T12:35:47.731Z,28.67
2019-01-21T12:38:19.488Z,10.37
2019-01-21T12:41:21.734Z,16.17
2019-01-21T12:44:11.440Z,13.83
2019-01-21T12:47:04.608Z,16.83
2019-01-21T12:49:39.120Z,15.23
2019-01-21T12:52:16.840Z,12.10
2019-01-21T12:54:51.341Z,12.07
2019-01-21T12:57:29.038Z,10.97
2019-01-21T13:00:17.282Z,13.53
2019-01-21T13:03:10.306Z,15.40
2019-01-21T13:06:03.397Z,16.50
2019-01-21T13:08:44.062Z,14.23
2019-01-21T13:11:15.821Z,13.17
2019-01-21T13:13:50.342Z,16.23
2019-01-21T13:16:28.144Z,13.77
2019-01-21T13:19:15.124Z,11.70
2019-01-21T13:22:09.250Z,11.83
2019-01-21T13:25:10.079Z,11.57
2019-01-21T13:27:44.817Z,11.13
2019-01-21T13:30:28.837Z,13.20
2019-01-21T13:33:16.995Z,12.27
2019-01-21T13:35:54.694Z,13.53
2019-01-21T13:38:44.471Z,12.93
2019-01-21T13:41:21.793Z,13.90
2019-01-21T13:44:11.459Z,14.50
2019-01-21T13:47:00.516Z,13.13
2019-01-21T13:49:51.784Z,11.53
2019-01-21T13:52:23.507Z,10.30
2019-01-21T13:55:28.815Z,12.00
2019-01-21T13:58:06.617Z,12.23
2019-01-21T14:00:41.160Z,13.00
2019-01-21T14:03:21.681Z,15.13
2019-01-21T14:05:56.021Z,14.73
2019-01-21T14:08:33.318Z,14.33
2019-01-21T14:11:37.120Z,14.30
2019-01-21T14:14:08.808Z,14.50
2019-01-21T14:17:00.001Z,15.17
2019-01-21T14:19:43.935Z,23.87
2019-01-21T14:22:24.391Z,15.03
2019-01-21T14:25:15.814Z,15.23
2019-01-21T14:27:47.460Z,17.17
2019-01-21T14:30:34.996Z,14.07
2019-01-21T14:33:23.515Z,14.80
2019-01-21T14:36:13.307Z,17.37
2019-01-21T14:39:04.396Z,15.47
2019-01-21T14:41:45.000Z,15.97
2019-01-21T14:44:45.358Z,13.70
2019-01-21T14:47:29.069Z,14.57
2019-01-21T14:50:23.662Z,15.33
2019-01-21T14:52:58.433Z,16.87
2019-01-21T14:55:51.242Z,16.77
2019-01-21T14:58:23.193Z,16.50
2019-01-21T15:01:00.728Z,17.00
2019-01-21T15:03:32.449Z,14.60
2019-01-21T15:06:19.146Z,18.50
2019-01-21T15:08:53.419Z,16.70
2019-01-21T15:11:42.192Z,14.47
2019-01-21T15:14:13.911Z,13.37
2019-01-21T15:16:54.836Z,14.10
2019-01-21T15:19:27.018Z,13.37
2019-01-21T15:22:04.484Z,13.43
2019-01-21T15:24:36.771Z,13.37
2019-01-21T15:27:17.643Z,15.73
2019-01-21T15:29:58.029Z,16.90
2019-01-21T15:32:35.746Z,17.17
2019-01-21T15:35:20.758Z,17.00
2019-01-21T15:37:58.728Z,19.27
2019-01-21T15:40:47.088Z,17.10
2019-01-21T15:43:18.706Z,19.70
2019-01-21T15:45:53.520Z,19.63
2019-01-21T15:48:52.523Z,16.83
2019-01-21T15:51:35.566Z,16.90
2019-01-21T15:54:24.109Z,17.77
2019-01-21T15:57:11.117Z,19.53
2019-01-21T15:59:51.880Z,19.53
2019-01-21T16:02:35.569Z,19.80
2019-01-21T16:05:07.215Z,19.33
2019-01-21T16:07:45.096Z,21.60
2019-01-21T16:10:28.924Z,22.10
2019-01-21T16:13:06.371Z,23.53
2019-01-21T16:16:02.185Z,20.57
2019-01-21T16:18:39.929Z,16.73
2019-01-21T16:21:46.875Z,16.00
2019-01-21T16:24:33.978Z,19.37
2019-01-21T16:27:11.422Z,20.03
2019-01-21T16:29:45.738Z,21.17
2019-01-21T16:32:14.831Z,18.00
2019-01-21T16:35:11.058Z,16.97
2019-01-21T16:37:51.522Z,18.07
2019-01-21T16:40:41.301Z,15.27
2019-01-21T16:43:10.092Z,17.80
2019-01-21T16:45:38.982Z,19.10
2019-01-21T16:48:07.876Z,17.13
2019-01-21T16:50:36.662Z,18.73
2019-01-21T16:53:05.552Z,21.03
2019-01-21T16:55:34.349Z,21.10
2019-01-21T16:58:03.134Z,21.23
2019-01-21T17:00:31.922Z,20.63
2019-01-21T17:03:00.835Z,17.83
2019-01-21T17:05:29.696Z,17.00
2019-01-21T17:07:58.433Z,15.07
2019-01-21T17:10:27.273Z,17.07
2019-01-21T17:12:56.022Z,19.00
2019-01-21T17:15:24.891Z,19.63
2019-01-21T17:17:54.071Z,15.93
2019-01-21T17:20:24.012Z,16.67
2019-01-21T17:22:52.745Z,15.17
2019-01-21T17:25:21.847Z,20.43
2019-01-21T17:27:50.740Z,21.13
2019-01-21T17:30:19.626Z,21.93
2019-01-21T17:32:48.519Z,18.87
2019-01-21T17:35:17.408Z,21.53
2019-01-21T17:37:46.195Z,19.07
2019-01-21T17:40:17.859Z,19.00
2019-01-21T17:42:46.638Z,21.43
2019-01-21T17:45:18.272Z,18.83
2019-01-21T17:47:47.185Z,21.33
2019-01-21T17:50:17.917Z,21.10
2019-01-21T17:52:46.656Z,22.00
2019-01-21T17:55:16.006Z,24.00
2019-01-21T17:57:44.743Z,19.10
2019-01-21T18:00:18.190Z,19.53
2019-01-21T18:02:47.492Z,18.00
2019-01-21T18:05:16.997Z,16.27
2019-01-21T18:07:45.786Z,15.20
2019-01-21T18:10:17.151Z,14.47
2019-01-21T18:12:45.920Z,18.33
2019-01-21T18:15:15.459Z,20.20
2019-01-21T18:17:44.470Z,21.10
2019-01-21T18:20:19.016Z,20.53
2019-01-21T18:22:47.759Z,19.83
2019-01-21T18:25:16.925Z,19.50
2019-01-21T18:27:45.815Z,21.63
2019-01-21T18:30:20.068Z,20.80
2019-01-21T18:32:49.130Z,16.47
2019-01-21T18:35:18.124Z,17.53
2019-01-21T18:37:47.259Z,18.20
2019-01-21T18:40:18.355Z,17.53
2019-01-21T18:42:47.667Z,17.23
2019-01-21T18:45:22.567Z,15.07
2019-01-21T18:47:51.995Z,14.30
2019-01-21T18:50:20.885Z,15.63
2019-01-21T18:52:50.643Z,15.77
2019-01-21T18:55:19.593Z,16.03
2019-01-21T18:57:48.377Z,16.37
2019-01-21T19:00:25.869Z,17.53
2019-01-21T19:02:54.664Z,18.93
2019-01-21T19:05:23.754Z,14.87
2019-01-21T19:07:53.742Z,15.17
2019-01-21T19:10:22.659Z,14.17
2019-01-21T19:12:51.450Z,13.93
2019-01-21T19:15:23.103Z,15.33
2019-01-21T19:17:51.893Z,15.87
2019-01-21T19:20:20.886Z,21.53
2019-01-21T19:22:49.881Z,17.87
2019-01-21T19:25:18.668Z,20.77
2019-01-21T19:27:47.459Z,19.67
2019-01-21T19:30:24.749Z,21.20
2019-01-21T19:32:53.494Z,17.83
2019-01-21T19:35:31.326Z,20.73
2019-01-21T19:38:00.220Z,15.60
2019-01-21T19:40:29.008Z,22.63
2019-01-21T19:42:57.900Z,18.80
2019-01-21T19:45:26.700Z,18.27
2019-01-21T19:47:55.423Z,16.57
2019-01-21T19:50:24.990Z,18.20
2019-01-21T19:52:53.763Z,16.77
2019-01-21T19:55:28.401Z,14.87
2019-01-21T19:57:58.208Z,15.87
2019-01-21T20:00:27.200Z,14.00
2019-01-21T20:02:55.987Z,14.10
2019-01-21T20:05:24.995Z,16.23
2019-01-21T20:07:53.721Z,16.13
2019-01-21T20:10:24.266Z,18.97
2019-01-21T20:12:53.285Z,19.33
2019-01-21T20:15:22.926Z,17.37
2019-01-21T20:17:51.662Z,17.43
2019-01-21T20:20:26.266Z,15.83
2019-01-21T20:22:57.637Z,18.17
2019-01-21T20:25:25.692Z,16.73
2019-01-21T20:27:54.720Z,14.40
2019-01-21T20:30:25.158Z,16.73
2019-01-21T20:32:54.197Z,14.40
2019-01-21T20:35:23.440Z,15.87
2019-01-21T20:37:52.188Z,17.13
2019-01-21T20:40:23.696Z,18.50
2019-01-21T20:42:52.670Z,15.93
2019-01-21T20:45:21.561Z,23.90
2019-01-21T20:47:50.297Z,16.47
2019-01-21T20:50:25.108Z,16.97
2019-01-21T20:52:53.869Z,19.97
2019-01-21T20:55:22.863Z,17.67
2019-01-21T20:57:51.954Z,18.33
2019-01-21T21:00:29.086Z,15.63
2019-01-21T21:02:58.705Z,17.97
2019-01-21T21:05:27.840Z,16.40
2019-01-21T21:07:56.609Z,17.80
2019-01-21T21:10:25.689Z,15.27
2019-01-21T21:12:54.511Z,14.50
2019-01-21T21:15:28.866Z,15.27
2019-01-21T21:17:57.722Z,14.87
2019-01-21T21:20:26.512Z,18.57
2019-01-21T21:22:55.404Z,17.63
2019-01-21T21:25:24.503Z,18.33
2019-01-21T21:27:53.486Z,19.23
2019-01-21T21:30:27.944Z,17.93
2019-01-21T21:32:57.103Z,15.13
2019-01-21T21:35:26.093Z,16.63
2019-01-21T21:37:54.887Z,14.97
2019-01-21T21:40:24.490Z,14.90
2019-01-21T21:42:53.490Z,14.63
2019-01-21T21:45:22.931Z,14.83
2019-01-21T21:47:52.095Z,14.37
2019-01-21T21:50:23.738Z,14.23
2019-01-21T21:52:52.625Z,14.33
2019-01-21T21:55:21.424Z,16.63
2019-01-21T21:57:50.205Z,16.30
2019-01-21T22:00:27.385Z,15.80
2019-01-21T22:02:56.130Z,15.63
2019-01-21T22:05:24.965Z,15.97
2019-01-21T22:07:53.856Z,17.30
2019-01-21T22:10:24.999Z,16.33
2019-01-21T22:12:53.824Z,15.97
2019-01-21T22:15:23.887Z,15.67
2019-01-21T22:17:52.625Z,16.07
2019-01-21T22:20:23.076Z,14.57
2019-01-21T22:22:52.113Z,16.27
2019-01-21T22:25:21.033Z,15.17
2019-01-21T22:27:49.895Z,16.83
2019-01-21T22:30:23.496Z,12.80
2019-01-21T22:32:52.285Z,12.63
2019-01-21T22:35:21.074Z,12.03
2019-01-21T22:37:50.068Z,12.27
2019-01-21T22:40:20.710Z,12.07
2019-01-21T22:42:49.658Z,13.03
2019-01-21T22:45:19.862Z,11.30
2019-01-21T22:47:48.592Z,13.83
2019-01-21T22:50:18.330Z,13.07
2019-01-21T22:52:47.195Z,12.53
2019-01-21T22:55:17.137Z,12.27
2019-01-21T22:57:46.002Z,11.80
2019-01-21T23:00:42.538Z,11.90
2019-01-21T23:03:11.838Z,11.77
2019-01-21T23:05:40.731Z,12.47
2019-01-21T23:08:09.722Z,13.37
2019-01-21T23:10:38.925Z,13.37
2019-01-21T23:13:07.710Z,12.10
2019-01-21T23:15:36.599Z,11.03
2019-01-21T23:18:06.004Z,12.27
2019-01-21T23:20:34.792Z,13.60
2019-01-21T23:23:03.889Z,12.97
2019-01-21T23:25:32.671Z,12.83
2019-01-21T23:28:01.460Z,11.63
2019-01-21T23:30:30.559Z,14.53
2019-01-21T23:32:59.342Z,12.80
2019-01-21T23:38:26.003Z,14.63
2019-01-21T23:40:54.801Z,15.70
2019-01-21T23:43:23.782Z,15.83
2019-01-21T23:45:52.803Z,14.77
2019-01-21T23:48:21.684Z,15.47
2019-01-21T23:50:50.428Z,15.33
2019-01-21T23:53:19.254Z,14.83
2019-01-21T23:55:48.051Z,15.17
2019-01-21T23:58:16.818Z,15.13
